This demonstration page uses our WeatherBlox Daily Observations layout. Learn more.

41.55636, -103.73856

Hourly Observations for February 5, 2019

Temp ( °F °C ) Dew Point ( °F °C ) Humidity (%) Winds ( mph kmh ) Pressure ( in mb ) Visibility ( mi km ) Precip ( " mm )
12:58 am 00:58 Mostly Clear 24 -4.4 16 -9.1 70 70 SE 12 19 29.89 1012 10 16.0934 N/A
1:58 am 01:58 Clear 21 -6.1 15 -9.7 76 76 SE 8 13 29.92 1013 10 16.0934 N/A
2:58 am 02:58 Mostly Cloudy 20 -6.9 13 -10.5 76 76 SSE 16 26 29.92 1013 10 16.0934 N/A
3:58 am 03:58 Cloudy 19 -7.2 12 -10.9 75 75 SSE 16 26 29.92 1013 10 16.0934 N/A
4:58 am 04:58 Mostly Cloudy 19 -7.4 12 -11.1 75 75 S 15 24 29.91 1013 10 16.0934 N/A
5:58 am 05:58 Mostly Cloudy 17 -8.2 12 -11.3 79 79 S 20 31 29.9 1013 10 16.0934 N/A
6:58 am 06:58 Mostly Cloudy 16 -8.7 13 -10.6 86 86 S 18 30 29.9 1013 10 16.0934 N/A
7:58 am 07:58 Mostly Cloudy with Mist and Fog 16 -9 14 -10 93 93 S 21 33 29.87 1011 3 4.82802 N/A
8:58 am 08:58 Mostly Cloudy with Freezing Fog 17 -8.6 15 -9.6 93 93 S 17 28 29.85 1011 5 8.0467 N/A
9:58 am 09:58 Mostly Cloudy with Freezing Fog 17 -8.1 15 -9.2 92 92 S 14 22 29.82 1010 0.25 0.402335 N/A
10:58 am 10:58 Mostly Cloudy with Freezing Fog 18 -8 16 -9.1 92 92 S 16 26 29.8 1009 0.25 0.402335 N/A
11:58 am 11:58 Mostly Cloudy with Light Snow Showers 18 -7.6 16 -8.7 92 92 S 14 22 29.82 1010 0.25 0.402335 N/A
12:58 pm 12:58 Mostly Cloudy with Freezing Fog 19 -7.4 17 -8.6 91 91 S 15 24 29.8 1009 5 8.0467 N/A
1:58 pm 13:58 Mostly Cloudy with Mist and Fog 19 -7.2 17 -8.4 91 91 S 14 22 29.81 1010 7 11.26538 N/A
2:58 pm 14:58 Mostly Cloudy with Mist and Fog 19 -7.4 17 -8.6 91 91 S 16 26 29.81 1010 4 6.43736 N/A
3:58 pm 15:58 Mostly Cloudy with Mist and Fog 20 -6.7 18 -7.8 92 92 S 15 24 29.8 1009 6 9.65604 N/A
4:58 pm 16:58 Mostly Cloudy with Light Snow Showers 22 -5.7 20 -6.5 94 94 S 17 28 29.81 1010 8 12.87472 N/A
5:58 pm 17:58 Mostly Cloudy 25 -4.1 23 -4.8 95 95 SSW 14 22 29.8 1009 10 16.0934 N/A
6:58 pm 18:58 Sunny 33 0.5 24 -4.4 70 70 S 17 28 29.73 1007 10 16.0934 N/A
7:58 pm 19:58 Sunny 37 2.7 24 -4.5 59 59 S 12 19 29.7 1006 10 16.0934 N/A
8:58 pm 20:58 Sunny 42 5.3 26 -3.2 55 55 SSE 18 30 29.66 1004 10 16.0934 N/A
9:58 pm 21:58 Sunny 42 5.3 26 -3.1 55 55 S 15 24 29.66 1004 10 16.0934 N/A
10:58 pm 22:58 Mostly Sunny 40 4.4 26 -3.2 58 58 S 13 20 29.68 1005 10 16.0934 N/A

Powered by AerisWeather